Wausau, WI

1:40 PM CDT on July 30, 2014 (GMT -0500)
Hawthorn Hills Elementary School (KWIWAUSA4) Elev 1201 ft | 44.96 °N, 89.61 °W | Change Station

Current weather conditions updated 2 seconds ago

Partly Cloudy
Partly Cloudy
70.2 °F
Feels Like 77 °F
N
4.0
Wind Variable Wind from NNW
Gusts 13.0 mph

Today is forecast to be Cooler than yesterday. Showers early tonight.

Today
High -- | Low -- °F
--% Chance of Precip.
Yesterday
High -- | Low -- °F
Precip. -- in
5:41 AM 8:27 PM
Waxing Crescent, 13% visible
Pressure 30.06 in
Visibility 10.0 miles
Clouds Few 4600 ft
Heat Index 77 °F
Dew Point 52 °F
Humidity 52%
Rainfall 0.00 in
Snow Depth Not available.
UV 10 out of 12
Pollen 7.30 out of 12
Air Quality Not available.
Flu Activity Not available.
METAR KAUW 301754Z AUTO 32009KT 10SM FEW046 22/09 A3005 RMK AO2 SLP178 60000 T02170094 10217 20106 58004

More Conditions Fewer Conditions

Pressure 30.06 in
Visibility 10.0 miles
Clouds Few 4600 ft
Heat Index 77 °F
Dew Point 52 °F
Humidity 52%
Rainfall 0.00 in
Snow Depth Not available.
UV 10 out of 12
Pollen 7.30 out of 12
Air Quality Not available.
Flu Activity Not available.
METAR KAUW 301754Z AUTO 32009KT 10SM FEW046 22/09 A3005 RMK AO2 SLP178 60000 T02170094 10217 20106 58004

More Conditions Fewer Conditions

10-Day Weather Forecast

Almanac

Astronomy

Jul. 30, 2014 Rise Set
Actual Time 5:41 AM CDT 8:27 PM CDT
Civil Twilight 5:07 AM CDT 9:01 PM CDT
Nautical Twilight 4:24 AM CDT 9:44 PM CDT
Astronomical Twilight 3:34 AM CDT 10:33 PM CDT
Moon 9:25 AM CDT 9:57 PM CDT
Length of Visible Light 15h 53m
Length of Day
14h 45m
Tomorrow will be 2m 20s shorter.
Waxing Crescent, 13% of the Moon is Illuminated
Today
Waxing Crescent
Aug 3
First Quarter
Aug 10
Full
Aug 17
Last Quarter
Aug 25
New

Today's Extremes

State Highs State Lows

Community

WunderPhotos

Upload Photos

1,739,152 photos uploaded!

Nearby

Snow Depth

Station Depth Elevation
No new snow has been reported.

Earthquake Activity

City Distance Mag. Time & Date
No recent earthquake activity has been reported nearby.
Minimum magnitude displayed is 2.5.

Coastal Water Temperatures

Place Temperature
No Stations Reporting

Nearby Weather Stations

Station Location Temp. Heat Index Dew Point Humidity Wind Precip. Elev Updated Type
Hawthorn Hills Elementary School, Wausau, WI 70.2 °F 77 °F 52 °F 52% NNW  at  4.0 mph 0.00 in / hr 1201 ft 1:40 PM CDT Rapid Fire
6 White Pillars, Wausau, WI 70.3 °F 76 °F 55 °F 59% NW  at  3.0 mph 0.00 in / hr 1381 ft 1:40 PM CDT Normal
Rib Falls Repair, Athens, WI 70.1 °F 75 °F 57 °F 63% West  at  0.0 mph 0.00 in / hr 1348 ft 1:40 PM CDT Normal

Show More Stations Show Fewer Stations